sensor_id;sensor_type;location;lat;lon;timestamp;pressure;altitude;pressure_sealevel;temperature;humidity
61506;BME280;47366;51.916;4.574;2023-06-26T00:01:14;101276.50;;;24.66;53.42
61506;BME280;47366;51.916;4.574;2023-06-26T00:03:40;101277.38;;;24.58;52.19
61506;BME280;47366;51.916;4.574;2023-06-26T00:06:05;101284.28;;;24.54;52.64
61506;BME280;47366;51.916;4.574;2023-06-26T00:08:30;101278.06;;;24.52;53.20
61506;BME280;47366;51.916;4.574;2023-06-26T00:10:56;101277.72;;;24.47;53.78
61506;BME280;47366;51.916;4.574;2023-06-26T00:13:23;101277.53;;;24.41;53.60
61506;BME280;47366;51.916;4.574;2023-06-26T00:15:50;101289.16;;;24.36;53.51
61506;BME280;47366;51.916;4.574;2023-06-26T00:18:15;101292.06;;;24.26;54.48
61506;BME280;47366;51.916;4.574;2023-06-26T00:20:41;101301.28;;;24.27;54.12
61506;BME280;47366;51.916;4.574;2023-06-26T00:23:06;101325.66;;;24.23;53.71
61506;BME280;47366;51.916;4.574;2023-06-26T00:25:33;101304.19;;;24.01;54.71
61506;BME280;47366;51.916;4.574;2023-06-26T00:27:58;101306.06;;;23.92;54.87
61506;BME280;47366;51.916;4.574;2023-06-26T00:30:24;101321.97;;;23.90;55.60
61506;BME280;47366;51.916;4.574;2023-06-26T00:32:49;101312.13;;;23.79;56.14
61506;BME280;47366;51.916;4.574;2023-06-26T00:35:16;101320.94;;;23.74;55.56
61506;BME280;47366;51.916;4.574;2023-06-26T00:37:41;101314.19;;;23.77;55.59
61506;BME280;47366;51.916;4.574;2023-06-26T00:40:07;101310.50;;;23.68;56.61
61506;BME280;47366;51.916;4.574;2023-06-26T00:42:32;101322.41;;;23.61;56.64
61506;BME280;47366;51.916;4.574;2023-06-26T00:44:58;101311.69;;;23.58;56.13
61506;BME280;47366;51.916;4.574;2023-06-26T00:47:23;101326.22;;;23.60;56.24
61506;BME280;47366;51.916;4.574;2023-06-26T00:49:49;101314.94;;;23.53;56.82
61506;BME280;47366;51.916;4.574;2023-06-26T00:52:15;101320.63;;;23.51;56.75
61506;BME280;47366;51.916;4.574;2023-06-26T00:54:42;101311.47;;;23.51;56.38
61506;BME280;47366;51.916;4.574;2023-06-26T00:57:07;101319.59;;;23.52;56.50
61506;BME280;47366;51.916;4.574;2023-06-26T00:59:33;101317.66;;;23.45;57.60
61506;BME280;47366;51.916;4.574;2023-06-26T01:01:59;101330.13;;;23.41;56.95
61506;BME280;47366;51.916;4.574;2023-06-26T01:04:24;101324.75;;;23.39;57.18
61506;BME280;47366;51.916;4.574;2023-06-26T01:06:53;101308.44;;;23.20;57.98
61506;BME280;47366;51.916;4.574;2023-06-26T01:09:21;101320.69;;;23.17;57.81
61506;BME280;47366;51.916;4.574;2023-06-26T01:11:47;101319.63;;;23.10;60.04
61506;BME280;47366;51.916;4.574;2023-06-26T01:14:13;101327.72;;;23.11;58.43
61506;BME280;47366;51.916;4.574;2023-06-26T01:16:39;101330.66;;;23.10;57.93
61506;BME280;47366;51.916;4.574;2023-06-26T01:19:09;101334.13;;;23.12;58.43
61506;BME280;47366;51.916;4.574;2023-06-26T01:21:40;101317.50;;;23.04;59.56
61506;BME280;47366;51.916;4.574;2023-06-26T01:24:17;101322.69;;;23.07;59.92
61506;BME280;47366;51.916;4.574;2023-06-26T01:26:49;101315.28;;;23.07;59.48
61506;BME280;47366;51.916;4.574;2023-06-26T01:29:16;101309.56;;;23.09;58.67
61506;BME280;47366;51.916;4.574;2023-06-26T01:31:43;101324.44;;;23.08;59.58
61506;BME280;47366;51.916;4.574;2023-06-26T01:34:11;101325.41;;;22.99;58.89
61506;BME280;47366;51.916;4.574;2023-06-26T01:36:38;101314.41;;;23.07;59.94
61506;BME280;47366;51.916;4.574;2023-06-26T01:39:03;101317.00;;;23.08;59.83
61506;BME280;47366;51.916;4.574;2023-06-26T01:41:28;101318.06;;;22.89;59.09
61506;BME280;47366;51.916;4.574;2023-06-26T01:44:14;101318.63;;;22.93;59.73
61506;BME280;47366;51.916;4.574;2023-06-26T01:47:03;101315.59;;;22.78;59.77
61506;BME280;47366;51.916;4.574;2023-06-26T01:49:43;101330.81;;;22.82;60.52
61506;BME280;47366;51.916;4.574;2023-06-26T01:57:48;101330.91;;;22.73;60.26
61506;BME280;47366;51.916;4.574;2023-06-26T02:00:18;101339.53;;;22.69;60.31
61506;BME280;47366;51.916;4.574;2023-06-26T02:02:44;101323.81;;;22.70;60.39
61506;BME280;47366;51.916;4.574;2023-06-26T02:05:11;101339.53;;;22.69;60.57
61506;BME280;47366;51.916;4.574;2023-06-26T02:07:36;101338.66;;;22.69;60.02
61506;BME280;47366;51.916;4.574;2023-06-26T02:10:02;101327.94;;;22.66;60.41
61506;BME280;47366;51.916;4.574;2023-06-26T02:12:28;101327.22;;;22.64;60.69
61506;BME280;47366;51.916;4.574;2023-06-26T02:14:53;101341.75;;;22.66;60.95
61506;BME280;47366;51.916;4.574;2023-06-26T02:17:19;101333.72;;;22.55;61.44
61506;BME280;47366;51.916;4.574;2023-06-26T02:19:44;101336.09;;;22.50;61.47
61506;BME280;47366;51.916;4.574;2023-06-26T02:22:13;101345.47;;;22.57;61.36
61506;BME280;47366;51.916;4.574;2023-06-26T02:24:40;101347.22;;;22.58;61.06
61506;BME280;47366;51.916;4.574;2023-06-26T02:27:05;101340.91;;;22.47;60.73
61506;BME280;47366;51.916;4.574;2023-06-26T02:29:30;101339.81;;;22.40;61.01
61506;BME280;47366;51.916;4.574;2023-06-26T02:31:56;101342.56;;;22.40;61.24
61506;BME280;47366;51.916;4.574;2023-06-26T02:34:21;101340.13;;;22.37;60.76
61506;BME280;47366;51.916;4.574;2023-06-26T02:36:46;101356.31;;;22.32;60.37
61506;BME280;47366;51.916;4.574;2023-06-26T02:39:12;101335.75;;;22.26;61.45
61506;BME280;47366;51.916;4.574;2023-06-26T02:41:37;101348.66;;;22.26;60.86
61506;BME280;47366;51.916;4.574;2023-06-26T02:44:03;101344.31;;;22.23;61.30
61506;BME280;47366;51.916;4.574;2023-06-26T02:46:28;101347.78;;;22.25;61.00
61506;BME280;47366;51.916;4.574;2023-06-26T02:48:53;101364.06;;;22.29;61.28
61506;BME280;47366;51.916;4.574;2023-06-26T02:51:19;101349.84;;;22.23;61.82
61506;BME280;47366;51.916;4.574;2023-06-26T02:53:44;101358.44;;;22.20;60.68
61506;BME280;47366;51.916;4.574;2023-06-26T02:56:09;101359.00;;;22.24;61.43
61506;BME280;47366;51.916;4.574;2023-06-26T02:58:34;101363.69;;;22.14;61.22
61506;BME280;47366;51.916;4.574;2023-06-26T03:01:00;101372.16;;;22.12;61.44
61506;BME280;47366;51.916;4.574;2023-06-26T03:03:25;101380.19;;;22.05;62.56
61506;BME280;47366;51.916;4.574;2023-06-26T03:05:51;101377.31;;;21.97;62.47
61506;BME280;47366;51.916;4.574;2023-06-26T03:08:16;101377.25;;;21.89;61.96
61506;BME280;47366;51.916;4.574;2023-06-26T03:10:41;101381.97;;;21.79;61.98
61506;BME280;47366;51.916;4.574;2023-06-26T03:13:07;101383.53;;;21.81;62.46
61506;BME280;47366;51.916;4.574;2023-06-26T03:15:32;101374.88;;;21.76;62.25
61506;BME280;47366;51.916;4.574;2023-06-26T03:17:57;101386.75;;;21.77;62.54
61506;BME280;47366;51.916;4.574;2023-06-26T03:20:23;101396.28;;;21.82;61.63
61506;BME280;47366;51.916;4.574;2023-06-26T03:22:48;101392.41;;;21.75;62.36
61506;BME280;47366;51.916;4.574;2023-06-26T03:25:13;101400.38;;;21.78;61.54
61506;BME280;47366;51.916;4.574;2023-06-26T03:27:39;101402.59;;;21.75;62.83
61506;BME280;47366;51.916;4.574;2023-06-26T03:30:04;101393.66;;;21.63;61.88
61506;BME280;47366;51.916;4.574;2023-06-26T03:32:30;101392.78;;;21.62;63.34
61506;BME280;47366;51.916;4.574;2023-06-26T03:34:55;101395.69;;;21.61;62.02
61506;BME280;47366;51.916;4.574;2023-06-26T03:37:21;101391.94;;;21.62;62.33
61506;BME280;47366;51.916;4.574;2023-06-26T03:39:47;101406.25;;;21.66;62.11
61506;BME280;47366;51.916;4.574;2023-06-26T03:42:12;101403.50;;;21.66;62.22
61506;BME280;47366;51.916;4.574;2023-06-26T03:44:37;101400.88;;;21.64;61.20
61506;BME280;47366;51.916;4.574;2023-06-26T03:47:03;101413.81;;;21.63;61.49
61506;BME280;47366;51.916;4.574;2023-06-26T03:49:28;101416.28;;;21.67;62.00
61506;BME280;47366;51.916;4.574;2023-06-26T03:51:53;101421.09;;;21.65;62.14
61506;BME280;47366;51.916;4.574;2023-06-26T03:54:19;101416.03;;;21.60;61.42
61506;BME280;47366;51.916;4.574;2023-06-26T03:56:44;101427.91;;;21.60;61.93
61506;BME280;47366;51.916;4.574;2023-06-26T03:59:10;101427.19;;;21.58;61.97
61506;BME280;47366;51.916;4.574;2023-06-26T04:01:36;101417.78;;;21.51;61.65
61506;BME280;47366;51.916;4.574;2023-06-26T04:04:02;101415.63;;;21.45;61.33
61506;BME280;47366;51.916;4.574;2023-06-26T04:06:28;101425.19;;;21.51;61.16
61506;BME280;47366;51.916;4.574;2023-06-26T04:08:53;101429.41;;;21.55;60.66
61506;BME280;47366;51.916;4.574;2023-06-26T04:11:18;101436.63;;;21.56;60.76
61506;BME280;47366;51.916;4.574;2023-06-26T04:13:44;101438.81;;;21.52;61.05
61506;BME280;47366;51.916;4.574;2023-06-26T04:16:09;101448.88;;;21.44;61.06
61506;BME280;47366;51.916;4.574;2023-06-26T04:18:36;101451.75;;;21.52;60.76
61506;BME280;47366;51.916;4.574;2023-06-26T04:21:10;101457.16;;;21.44;60.93
61506;BME280;47366;51.916;4.574;2023-06-26T04:23:37;101465.56;;;21.42;61.17
61506;BME280;47366;51.916;4.574;2023-06-26T04:26:03;101466.84;;;21.38;60.86
61506;BME280;47366;51.916;4.574;2023-06-26T04:28:33;101474.09;;;21.39;60.86
61506;BME280;47366;51.916;4.574;2023-06-26T04:30:59;101477.31;;;21.34;61.54
61506;BME280;47366;51.916;4.574;2023-06-26T04:33:26;101478.47;;;21.32;60.78
61506;BME280;47366;51.916;4.574;2023-06-26T04:35:52;101468.94;;;21.26;60.68
61506;BME280;47366;51.916;4.574;2023-06-26T04:38:19;101472.53;;;21.27;60.96
61506;BME280;47366;51.916;4.574;2023-06-26T04:40:44;101468.22;;;21.24;61.23
61506;BME280;47366;51.916;4.574;2023-06-26T04:43:10;101482.53;;;21.28;60.85
61506;BME280;47366;51.916;4.574;2023-06-26T04:45:35;101480.66;;;21.28;61.32
61506;BME280;47366;51.916;4.574;2023-06-26T04:48:00;101487.31;;;21.26;61.03
61506;BME280;47366;51.916;4.574;2023-06-26T04:50:26;101479.66;;;21.19;60.79
61506;BME280;47366;51.916;4.574;2023-06-26T04:52:54;101485.00;;;21.21;60.94
61506;BME280;47366;51.916;4.574;2023-06-26T04:55:20;101492.13;;;21.24;60.91
61506;BME280;47366;51.916;4.574;2023-06-26T04:57:46;101494.72;;;21.25;61.75
61506;BME280;47366;51.916;4.574;2023-06-26T05:00:13;101501.41;;;21.23;61.73
61506;BME280;47366;51.916;4.574;2023-06-26T05:02:38;101505.19;;;21.21;60.90
61506;BME280;47366;51.916;4.574;2023-06-26T05:05:04;101509.84;;;21.11;62.44
61506;BME280;47366;51.916;4.574;2023-06-26T05:07:29;101504.31;;;21.11;61.97
61506;BME280;47366;51.916;4.574;2023-06-26T05:09:54;101506.94;;;21.13;61.90
61506;BME280;47366;51.916;4.574;2023-06-26T05:12:20;101508.66;;;21.14;62.27
61506;BME280;47366;51.916;4.574;2023-06-26T05:14:45;101521.88;;;21.10;62.41
61506;BME280;47366;51.916;4.574;2023-06-26T05:17:14;101524.78;;;21.09;63.03
61506;BME280;47366;51.916;4.574;2023-06-26T05:19:39;101521.72;;;21.02;62.46
61506;BME280;47366;51.916;4.574;2023-06-26T05:22:05;101528.84;;;21.05;62.99
61506;BME280;47366;51.916;4.574;2023-06-26T05:24:34;101527.69;;;21.07;63.04
61506;BME280;47366;51.916;4.574;2023-06-26T05:27:00;101540.44;;;21.08;63.09
61506;BME280;47366;51.916;4.574;2023-06-26T05:29:27;101544.47;;;21.14;62.92
61506;BME280;47366;51.916;4.574;2023-06-26T05:31:53;101529.56;;;21.07;63.17
61506;BME280;47366;51.916;4.574;2023-06-26T05:34:22;101543.63;;;21.13;63.48
61506;BME280;47366;51.916;4.574;2023-06-26T05:36:50;101542.34;;;21.08;63.22
61506;BME280;47366;51.916;4.574;2023-06-26T05:39:16;101547.09;;;21.15;63.09
61506;BME280;47366;51.916;4.574;2023-06-26T05:41:44;101559.56;;;21.19;61.98
61506;BME280;47366;51.916;4.574;2023-06-26T05:44:10;101565.34;;;21.16;61.51
61506;BME280;47366;51.916;4.574;2023-06-26T05:46:35;101566.09;;;21.18;60.82
61506;BME280;47366;51.916;4.574;2023-06-26T05:49:00;101582.78;;;21.27;60.32
61506;BME280;47366;51.916;4.574;2023-06-26T05:51:27;101585.25;;;21.20;59.55
61506;BME280;47366;51.916;4.574;2023-06-26T05:53:53;101592.06;;;21.16;59.93
61506;BME280;47366;51.916;4.574;2023-06-26T05:56:18;101596.69;;;21.15;59.74
61506;BME280;47366;51.916;4.574;2023-06-26T05:58:45;101597.00;;;21.12;59.49
61506;BME280;47366;51.916;4.574;2023-06-26T06:01:10;101593.22;;;21.23;59.40
61506;BME280;47366;51.916;4.574;2023-06-26T06:03:36;101584.66;;;21.16;58.63
61506;BME280;47366;51.916;4.574;2023-06-26T06:06:01;101586.72;;;21.14;58.91
61506;BME280;47366;51.916;4.574;2023-06-26T06:08:27;101594.97;;;21.24;57.92
61506;BME280;47366;51.916;4.574;2023-06-26T06:10:52;101604.66;;;21.28;57.80
61506;BME280;47366;51.916;4.574;2023-06-26T06:13:18;101596.13;;;21.31;57.57
61506;BME280;47366;51.916;4.574;2023-06-26T06:15:43;101601.50;;;21.42;57.22
61506;BME280;47366;51.916;4.574;2023-06-26T06:18:08;101610.78;;;21.51;57.44
61506;BME280;47366;51.916;4.574;2023-06-26T06:20:34;101615.13;;;21.54;57.10
61506;BME280;47366;51.916;4.574;2023-06-26T06:23:00;101619.88;;;21.61;57.00
61506;BME280;47366;51.916;4.574;2023-06-26T06:25:25;101622.22;;;21.56;56.69
61506;BME280;47366;51.916;4.574;2023-06-26T06:27:51;101637.06;;;21.46;56.69
61506;BME280;47366;51.916;4.574;2023-06-26T06:30:16;101640.66;;;21.36;57.13
61506;BME280;47366;51.916;4.574;2023-06-26T06:32:41;101642.81;;;21.52;57.20
61506;BME280;47366;51.916;4.574;2023-06-26T06:35:07;101644.56;;;21.63;56.32
61506;BME280;47366;51.916;4.574;2023-06-26T06:37:36;101655.00;;;21.79;56.05
61506;BME280;47366;51.916;4.574;2023-06-26T06:40:01;101652.94;;;21.91;55.82
61506;BME280;47366;51.916;4.574;2023-06-26T06:42:28;101654.78;;;22.10;55.23
61506;BME280;47366;51.916;4.574;2023-06-26T06:44:53;101659.44;;;21.99;54.66
61506;BME280;47366;51.916;4.574;2023-06-26T06:47:19;101659.34;;;21.81;54.94
61506;BME280;47366;51.916;4.574;2023-06-26T06:49:44;101673.59;;;21.77;55.37
61506;BME280;47366;51.916;4.574;2023-06-26T06:52:09;101655.16;;;21.77;55.06
61506;BME280;47366;51.916;4.574;2023-06-26T06:54:54;101675.72;;;22.02;55.99
61506;BME280;47366;51.916;4.574;2023-06-26T06:57:20;101680.31;;;22.12;55.03
61506;BME280;47366;51.916;4.574;2023-06-26T06:59:46;101679.16;;;22.14;54.94
61506;BME280;47366;51.916;4.574;2023-06-26T07:02:13;101673.50;;;22.16;53.98
61506;BME280;47366;51.916;4.574;2023-06-26T07:04:38;101677.28;;;22.24;53.74
61506;BME280;47366;51.916;4.574;2023-06-26T07:07:04;101680.88;;;22.35;54.09
61506;BME280;47366;51.916;4.574;2023-06-26T07:09:29;101689.56;;;22.40;53.30
61506;BME280;47366;51.916;4.574;2023-06-26T07:11:55;101690.78;;;22.27;53.29
61506;BME280;47366;51.916;4.574;2023-06-26T07:14:20;101683.66;;;22.25;54.04
61506;BME280;47366;51.916;4.574;2023-06-26T07:16:45;101692.38;;;22.30;54.27
61506;BME280;47366;51.916;4.574;2023-06-26T07:19:10;101691.16;;;22.42;53.58
61506;BME280;47366;51.916;4.574;2023-06-26T07:21:36;101691.53;;;22.57;53.63
61506;BME280;47366;51.916;4.574;2023-06-26T07:24:01;101706.31;;;22.66;52.41
61506;BME280;47366;51.916;4.574;2023-06-26T07:26:27;101702.94;;;22.72;52.77
61506;BME280;47366;51.916;4.574;2023-06-26T07:28:52;101709.28;;;22.82;52.81
61506;BME280;47366;51.916;4.574;2023-06-26T07:31:18;101702.25;;;22.88;52.66
61506;BME280;47366;51.916;4.574;2023-06-26T07:33:43;101714.44;;;22.95;52.40
61506;BME280;47366;51.916;4.574;2023-06-26T07:36:08;101721.13;;;23.02;53.01
61506;BME280;47366;51.916;4.574;2023-06-26T07:38:34;101717.53;;;23.20;53.03
61506;BME280;47366;51.916;4.574;2023-06-26T07:40:59;101713.41;;;23.24;51.94
61506;BME280;47366;51.916;4.574;2023-06-26T07:43:24;101709.13;;;23.11;51.83
61506;BME280;47366;51.916;4.574;2023-06-26T07:45:50;101723.34;;;23.17;51.74
61506;BME280;47366;51.916;4.574;2023-06-26T07:48:16;101718.88;;;23.16;51.09
61506;BME280;47366;51.916;4.574;2023-06-26T07:50:42;101728.41;;;23.21;51.49
61506;BME280;47366;51.916;4.574;2023-06-26T07:53:07;101733.81;;;23.23;51.26
61506;BME280;47366;51.916;4.574;2023-06-26T07:55:33;101730.72;;;23.26;51.24
61506;BME280;47366;51.916;4.574;2023-06-26T07:57:58;101737.22;;;23.35;51.06
61506;BME280;47366;51.916;4.574;2023-06-26T08:00:23;101733.66;;;23.42;51.62
61506;BME280;47366;51.916;4.574;2023-06-26T08:02:49;101728.72;;;23.46;51.47
61506;BME280;47366;51.916;4.574;2023-06-26T08:05:14;101745.69;;;23.51;51.47
61506;BME280;47366;51.916;4.574;2023-06-26T08:07:40;101750.75;;;23.56;50.93
61506;BME280;47366;51.916;4.574;2023-06-26T08:10:05;101742.28;;;23.57;50.83
61506;BME280;47366;51.916;4.574;2023-06-26T08:12:31;101736.69;;;23.67;50.92
61506;BME280;47366;51.916;4.574;2023-06-26T08:14:56;101741.38;;;23.84;50.81
61506;BME280;47366;51.916;4.574;2023-06-26T08:17:22;101751.56;;;23.84;50.09
61506;BME280;47366;51.916;4.574;2023-06-26T08:19:47;101756.06;;;23.85;50.55
61506;BME280;47366;51.916;4.574;2023-06-26T08:22:12;101760.16;;;23.99;50.09
61506;BME280;47366;51.916;4.574;2023-06-26T08:24:38;101759.41;;;24.14;49.93
61506;BME280;47366;51.916;4.574;2023-06-26T08:27:03;101763.28;;;23.95;50.19
61506;BME280;47366;51.916;4.574;2023-06-26T08:29:29;101755.13;;;23.94;49.93
61506;BME280;47366;51.916;4.574;2023-06-26T08:31:54;101766.31;;;24.10;49.32
61506;BME280;47366;51.916;4.574;2023-06-26T08:34:20;101761.22;;;24.24;48.91
61506;BME280;47366;51.916;4.574;2023-06-26T08:36:45;101756.94;;;24.29;49.14
61506;BME280;47366;51.916;4.574;2023-06-26T08:39:10;101752.81;;;24.33;48.54
61506;BME280;47366;51.916;4.574;2023-06-26T08:41:36;101764.09;;;24.58;48.72
61506;BME280;47366;51.916;4.574;2023-06-26T08:44:03;101776.56;;;24.62;48.51
61506;BME280;47366;51.916;4.574;2023-06-26T08:46:30;101760.88;;;24.71;48.17
61506;BME280;47366;51.916;4.574;2023-06-26T08:48:57;101779.91;;;24.74;47.68
61506;BME280;47366;51.916;4.574;2023-06-26T08:51:27;101782.66;;;24.66;48.36
61506;BME280;47366;51.916;4.574;2023-06-26T08:53:59;101782.28;;;24.43;47.93
61506;BME280;47366;51.916;4.574;2023-06-26T08:56:28;101777.44;;;24.36;48.43
61506;BME280;47366;51.916;4.574;2023-06-26T08:58:55;101779.63;;;24.33;48.22
61506;BME280;47366;51.916;4.574;2023-06-26T09:01:21;101785.16;;;24.33;48.52
61506;BME280;47366;51.916;4.574;2023-06-26T09:03:46;101786.84;;;24.26;48.13
61506;BME280;47366;51.916;4.574;2023-06-26T09:06:12;101787.53;;;24.46;48.42
61506;BME280;47366;51.916;4.574;2023-06-26T09:08:37;101799.31;;;24.48;48.09
61506;BME280;47366;51.916;4.574;2023-06-26T09:11:02;101793.19;;;24.36;48.38
61506;BME280;47366;51.916;4.574;2023-06-26T09:13:31;101791.75;;;24.32;48.32
61506;BME280;47366;51.916;4.574;2023-06-26T09:15:57;101782.41;;;24.51;48.13
61506;BME280;47366;51.916;4.574;2023-06-26T09:18:22;101800.09;;;24.84;47.45
61506;BME280;47366;51.916;4.574;2023-06-26T09:20:48;101809.59;;;25.16;47.19
61506;BME280;47366;51.916;4.574;2023-06-26T09:23:14;101806.50;;;25.19;46.56
61506;BME280;47366;51.916;4.574;2023-06-26T09:25:40;101813.97;;;24.92;46.50
61506;BME280;47366;51.916;4.574;2023-06-26T09:28:06;101816.88;;;24.56;47.31
61506;BME280;47366;51.916;4.574;2023-06-26T09:30:32;101824.38;;;24.64;46.98
61506;BME280;47366;51.916;4.574;2023-06-26T09:33:16;101827.25;;;24.54;46.87
61506;BME280;47366;51.916;4.574;2023-06-26T09:35:43;101824.09;;;24.75;46.75
61506;BME280;47366;51.916;4.574;2023-06-26T09:38:08;101821.81;;;24.71;46.62
61506;BME280;47366;51.916;4.574;2023-06-26T09:40:34;101820.22;;;24.60;46.96
61506;BME280;47366;51.916;4.574;2023-06-26T09:43:07;101829.47;;;24.33;46.84
61506;BME280;47366;51.916;4.574;2023-06-26T09:45:34;101832.47;;;24.40;46.61
61506;BME280;47366;51.916;4.574;2023-06-26T09:48:01;101841.53;;;24.06;46.99
61506;BME280;47366;51.916;4.574;2023-06-26T09:50:28;101831.34;;;23.88;47.81
61506;BME280;47366;51.916;4.574;2023-06-26T09:52:55;101844.28;;;23.88;47.30
61506;BME280;47366;51.916;4.574;2023-06-26T09:55:20;101842.50;;;23.69;47.67
61506;BME280;47366;51.916;4.574;2023-06-26T09:57:52;101849.28;;;23.84;47.56
61506;BME280;47366;51.916;4.574;2023-06-26T10:00:19;101858.00;;;23.89;48.00
61506;BME280;47366;51.916;4.574;2023-06-26T10:02:45;101861.94;;;24.23;47.84
61506;BME280;47366;51.916;4.574;2023-06-26T10:05:10;101845.69;;;24.64;46.84
61506;BME280;47366;51.916;4.574;2023-06-26T10:07:37;101852.31;;;24.97;46.10
61506;BME280;47366;51.916;4.574;2023-06-26T10:10:04;101846.53;;;24.90;46.12
61506;BME280;47366;51.916;4.574;2023-06-26T10:12:31;101856.25;;;24.86;46.39
61506;BME280;47366;51.916;4.574;2023-06-26T10:14:57;101857.09;;;24.61;46.50
61506;BME280;47366;51.916;4.574;2023-06-26T10:17:25;101871.59;;;24.36;46.38
61506;BME280;47366;51.916;4.574;2023-06-26T10:19:53;101871.44;;;24.20;46.96
61506;BME280;47366;51.916;4.574;2023-06-26T10:22:25;101864.09;;;24.29;46.74
61506;BME280;47366;51.916;4.574;2023-06-26T10:24:55;101866.03;;;24.54;46.54
61506;BME280;47366;51.916;4.574;2023-06-26T10:27:26;101874.59;;;24.87;46.48
61506;BME280;47366;51.916;4.574;2023-06-26T10:29:54;101887.13;;;25.17;45.89
61506;BME280;47366;51.916;4.574;2023-06-26T10:32:24;101878.31;;;25.22;44.69
61506;BME280;47366;51.916;4.574;2023-06-26T10:34:50;101882.34;;;25.36;44.46
61506;BME280;47366;51.916;4.574;2023-06-26T10:37:16;101883.63;;;25.50;44.71
61506;BME280;47366;51.916;4.574;2023-06-26T10:39:51;101893.94;;;25.74;44.80
61506;BME280;47366;51.916;4.574;2023-06-26T10:42:18;101887.50;;;25.65;44.64
61506;BME280;47366;51.916;4.574;2023-06-26T10:44:46;101892.56;;;25.35;43.72
61506;BME280;47366;51.916;4.574;2023-06-26T10:47:32;101898.94;;;25.01;43.80
61506;BME280;47366;51.916;4.574;2023-06-26T10:50:28;101893.75;;;25.25;43.04
61506;BME280;47366;51.916;4.574;2023-06-26T10:56:02;101875.69;;;25.20;42.88
61506;BME280;47366;51.916;4.574;2023-06-26T11:01:16;101908.84;;;25.04;43.22
61506;BME280;47366;51.916;4.574;2023-06-26T11:03:48;101922.88;;;25.29;43.13
61506;BME280;47366;51.916;4.574;2023-06-26T11:06:19;101920.03;;;25.47;42.60
61506;BME280;47366;51.916;4.574;2023-06-26T11:08:53;101914.56;;;25.71;42.36
61506;BME280;47366;51.916;4.574;2023-06-26T11:11:20;101925.22;;;25.84;42.63
61506;BME280;47366;51.916;4.574;2023-06-26T11:13:46;101922.09;;;25.45;41.97
61506;BME280;47366;51.916;4.574;2023-06-26T11:16:13;101913.75;;;25.36;42.25
61506;BME280;47366;51.916;4.574;2023-06-26T11:18:40;101924.44;;;25.31;42.35
61506;BME280;47366;51.916;4.574;2023-06-26T11:21:10;101924.38;;;25.49;42.16
61506;BME280;47366;51.916;4.574;2023-06-26T11:23:37;101940.53;;;25.62;42.03
61506;BME280;47366;51.916;4.574;2023-06-26T11:26:20;101937.09;;;25.60;41.03
61506;BME280;47366;51.916;4.574;2023-06-26T11:28:54;101945.59;;;25.67;42.20
61506;BME280;47366;51.916;4.574;2023-06-26T11:31:31;101941.09;;;25.66;41.07
61506;BME280;47366;51.916;4.574;2023-06-26T11:34:02;101945.66;;;25.75;40.45
61506;BME280;47366;51.916;4.574;2023-06-26T11:36:28;101937.41;;;25.57;40.98
61506;BME280;47366;51.916;4.574;2023-06-26T11:38:59;101938.53;;;25.80;39.98
61506;BME280;47366;51.916;4.574;2023-06-26T11:41:26;101948.00;;;25.61;40.45
61506;BME280;47366;51.916;4.574;2023-06-26T11:43:52;101956.63;;;25.50;40.51
61506;BME280;47366;51.916;4.574;2023-06-26T11:46:19;101960.31;;;25.59;41.09
61506;BME280;47366;51.916;4.574;2023-06-26T11:48:45;101966.94;;;25.66;41.31
61506;BME280;47366;51.916;4.574;2023-06-26T11:51:12;101975.50;;;25.47;41.90
61506;BME280;47366;51.916;4.574;2023-06-26T11:53:42;101981.06;;;25.47;41.23
61506;BME280;47366;51.916;4.574;2023-06-26T11:56:12;101996.28;;;25.42;41.72
61506;BME280;47366;51.916;4.574;2023-06-26T11:59:01;101983.28;;;25.43;41.05
61506;BME280;47366;51.916;4.574;2023-06-26T12:04:01;101989.13;;;25.66;41.24
61506;BME280;47366;51.916;4.574;2023-06-26T12:06:29;101984.38;;;25.50;40.47
61506;BME280;47366;51.916;4.574;2023-06-26T12:08:56;101976.00;;;25.42;41.66
61506;BME280;47366;51.916;4.574;2023-06-26T12:11:23;101981.78;;;25.49;41.27
61506;BME280;47366;51.916;4.574;2023-06-26T12:13:50;101981.16;;;25.63;40.91
61506;BME280;47366;51.916;4.574;2023-06-26T12:16:15;101989.63;;;25.61;40.38
61506;BME280;47366;51.916;4.574;2023-06-26T12:18:41;101997.22;;;25.51;40.66
61506;BME280;47366;51.916;4.574;2023-06-26T12:21:06;102014.81;;;25.34;40.41
61506;BME280;47366;51.916;4.574;2023-06-26T12:23:33;102008.97;;;25.01;41.14
61506;BME280;47366;51.916;4.574;2023-06-26T12:25:58;102005.41;;;25.09;41.21
61506;BME280;47366;51.916;4.574;2023-06-26T12:28:24;101997.44;;;25.14;41.04
61506;BME280;47366;51.916;4.574;2023-06-26T12:31:16;101993.22;;;25.19;40.29
61506;BME280;47366;51.916;4.574;2023-06-26T12:33:44;102000.63;;;25.45;40.38
61506;BME280;47366;51.916;4.574;2023-06-26T12:36:13;102005.75;;;25.58;40.28
61506;BME280;47366;51.916;4.574;2023-06-26T12:38:40;101993.94;;;25.56;39.81
61506;BME280;47366;51.916;4.574;2023-06-26T12:41:12;102000.22;;;25.58;39.49
61506;BME280;47366;51.916;4.574;2023-06-26T12:43:38;102001.69;;;25.78;39.90
61506;BME280;47366;51.916;4.574;2023-06-26T12:46:04;102007.34;;;25.95;39.11
61506;BME280;47366;51.916;4.574;2023-06-26T12:48:43;102008.09;;;25.79;38.43
61506;BME280;47366;51.916;4.574;2023-06-26T12:51:10;102002.72;;;25.77;39.58
61506;BME280;47366;51.916;4.574;2023-06-26T12:53:36;101996.31;;;25.77;39.44
61506;BME280;47366;51.916;4.574;2023-06-26T12:56:02;102017.38;;;25.88;39.41
61506;BME280;47366;51.916;4.574;2023-06-26T12:58:27;102007.22;;;26.04;39.73
61506;BME280;47366;51.916;4.574;2023-06-26T13:00:52;102003.78;;;26.11;39.48
61506;BME280;47366;51.916;4.574;2023-06-26T13:03:19;102001.72;;;26.21;40.12